sensor_id;sensor_type;location;lat;lon;timestamp;P1;durP1;ratioP1;P2;durP2;ratioP2
39740;SDS011;25426;53.478;10.190;2022-10-16T00:00:09;12.25;;;10.98;;
39740;SDS011;25426;53.478;10.190;2022-10-16T00:02:41;12.07;;;9.57;;
39740;SDS011;25426;53.478;10.190;2022-10-16T00:05:12;13.85;;;11.50;;
39740;SDS011;25426;53.478;10.190;2022-10-16T00:07:43;11.60;;;10.40;;
39740;SDS011;25426;53.478;10.190;2022-10-16T00:10:14;13.63;;;11.13;;
39740;SDS011;25426;53.478;10.190;2022-10-16T00:12:45;15.23;;;11.27;;
39740;SDS011;25426;53.478;10.190;2022-10-16T00:15:19;11.68;;;10.57;;
39740;SDS011;25426;53.478;10.190;2022-10-16T00:17:50;14.68;;;11.25;;
39740;SDS011;25426;53.478;10.190;2022-10-16T00:20:21;12.60;;;11.30;;
39740;SDS011;25426;53.478;10.190;2022-10-16T00:22:52;12.60;;;10.50;;
39740;SDS011;25426;53.478;10.190;2022-10-16T00:25:23;15.25;;;11.25;;
39740;SDS011;25426;53.478;10.190;2022-10-16T00:27:54;12.20;;;10.93;;
39740;SDS011;25426;53.478;10.190;2022-10-16T00:30:25;17.70;;;11.10;;
39740;SDS011;25426;53.478;10.190;2022-10-16T00:32:57;11.57;;;9.93;;
39740;SDS011;25426;53.478;10.190;2022-10-16T00:35:28;10.35;;;9.35;;
39740;SDS011;25426;53.478;10.190;2022-10-16T00:38:00;13.48;;;10.82;;
39740;SDS011;25426;53.478;10.190;2022-10-16T00:40:31;10.65;;;9.57;;
39740;SDS011;25426;53.478;10.190;2022-10-16T00:43:02;11.45;;;10.27;;
39740;SDS011;25426;53.478;10.190;2022-10-16T00:45:44;12.02;;;10.20;;
39740;SDS011;25426;53.478;10.190;2022-10-16T00:48:15;13.77;;;10.63;;
39740;SDS011;25426;53.478;10.190;2022-10-16T00:50:52;11.75;;;8.60;;
39740;SDS011;25426;53.478;10.190;2022-10-16T00:53:31;11.15;;;9.75;;
39740;SDS011;25426;53.478;10.190;2022-10-16T00:56:02;10.38;;;8.93;;
39740;SDS011;25426;53.478;10.190;2022-10-16T00:58:33;11.20;;;9.25;;
39740;SDS011;25426;53.478;10.190;2022-10-16T01:01:04;11.32;;;8.70;;
39740;SDS011;25426;53.478;10.190;2022-10-16T01:03:36;11.40;;;9.43;;
39740;SDS011;25426;53.478;10.190;2022-10-16T01:06:10;10.98;;;8.45;;
39740;SDS011;25426;53.478;10.190;2022-10-16T01:12:06;13.13;;;8.55;;
39740;SDS011;25426;53.478;10.190;2022-10-16T01:15:06;9.93;;;7.75;;
39740;SDS011;25426;53.478;10.190;2022-10-16T01:30:09;10.32;;;6.45;;
39740;SDS011;25426;53.478;10.190;2022-10-16T01:32:53;10.20;;;6.20;;
39740;SDS011;25426;53.478;10.190;2022-10-16T01:35:37;11.00;;;6.28;;
39740;SDS011;25426;53.478;10.190;2022-10-16T01:38:17;8.95;;;6.03;;
39740;SDS011;25426;53.478;10.190;2022-10-16T01:40:56;7.63;;;5.57;;
39740;SDS011;25426;53.478;10.190;2022-10-16T01:43:35;5.68;;;5.18;;
39740;SDS011;25426;53.478;10.190;2022-10-16T01:46:16;7.63;;;5.28;;
39740;SDS011;25426;53.478;10.190;2022-10-16T01:48:49;5.88;;;4.72;;
39740;SDS011;25426;53.478;10.190;2022-10-16T01:51:21;5.20;;;4.70;;
39740;SDS011;25426;53.478;10.190;2022-10-16T01:53:54;7.97;;;4.40;;
39740;SDS011;25426;53.478;10.190;2022-10-16T01:56:28;7.07;;;4.47;;
39740;SDS011;25426;53.478;10.190;2022-10-16T01:59:07;5.13;;;4.30;;
39740;SDS011;25426;53.478;10.190;2022-10-16T02:01:45;5.70;;;3.95;;
39740;SDS011;25426;53.478;10.190;2022-10-16T02:04:25;7.72;;;4.57;;
39740;SDS011;25426;53.478;10.190;2022-10-16T02:07:02;5.47;;;3.33;;
39740;SDS011;25426;53.478;10.190;2022-10-16T02:09:34;5.60;;;3.88;;
39740;SDS011;25426;53.478;10.190;2022-10-16T02:12:09;7.03;;;3.72;;
39740;SDS011;25426;53.478;10.190;2022-10-16T02:14:59;5.50;;;3.30;;
39740;SDS011;25426;53.478;10.190;2022-10-16T02:17:30;3.45;;;3.15;;
39740;SDS011;25426;53.478;10.190;2022-10-16T02:20:02;5.75;;;3.22;;
39740;SDS011;25426;53.478;10.190;2022-10-16T02:22:35;5.55;;;3.00;;
39740;SDS011;25426;53.478;10.190;2022-10-16T02:25:25;5.28;;;3.75;;
39740;SDS011;25426;53.478;10.190;2022-10-16T02:28:04;6.65;;;3.42;;
39740;SDS011;25426;53.478;10.190;2022-10-16T02:30:52;5.57;;;3.53;;
39740;SDS011;25426;53.478;10.190;2022-10-16T02:33:36;3.35;;;3.05;;
39740;SDS011;25426;53.478;10.190;2022-10-16T02:36:08;4.88;;;3.00;;
39740;SDS011;25426;53.478;10.190;2022-10-16T02:38:40;4.07;;;3.10;;
39740;SDS011;25426;53.478;10.190;2022-10-16T02:41:11;8.95;;;3.03;;
39740;SDS011;25426;53.478;10.190;2022-10-16T02:43:43;4.95;;;3.45;;
39740;SDS011;25426;53.478;10.190;2022-10-16T02:46:14;4.25;;;2.65;;
39740;SDS011;25426;53.478;10.190;2022-10-16T02:48:45;6.82;;;2.78;;
39740;SDS011;25426;53.478;10.190;2022-10-16T02:51:16;6.07;;;3.10;;
39740;SDS011;25426;53.478;10.190;2022-10-16T02:53:47;3.72;;;2.70;;
39740;SDS011;25426;53.478;10.190;2022-10-16T02:56:18;3.17;;;2.42;;
39740;SDS011;25426;53.478;10.190;2022-10-16T02:58:49;4.93;;;2.78;;
39740;SDS011;25426;53.478;10.190;2022-10-16T03:01:20;6.82;;;2.90;;
39740;SDS011;25426;53.478;10.190;2022-10-16T03:03:51;4.15;;;2.40;;
39740;SDS011;25426;53.478;10.190;2022-10-16T03:06:22;4.93;;;2.55;;
39740;SDS011;25426;53.478;10.190;2022-10-16T03:08:53;3.22;;;2.53;;
39740;SDS011;25426;53.478;10.190;2022-10-16T03:11:24;5.60;;;2.35;;
39740;SDS011;25426;53.478;10.190;2022-10-16T03:13:56;5.80;;;2.67;;
39740;SDS011;25426;53.478;10.190;2022-10-16T03:16:27;4.40;;;2.92;;
39740;SDS011;25426;53.478;10.190;2022-10-16T03:18:58;5.30;;;3.10;;
39740;SDS011;25426;53.478;10.190;2022-10-16T03:21:29;5.18;;;2.83;;
39740;SDS011;25426;53.478;10.190;2022-10-16T03:23:59;9.40;;;3.40;;
39740;SDS011;25426;53.478;10.190;2022-10-16T03:26:30;4.32;;;2.47;;
39740;SDS011;25426;53.478;10.190;2022-10-16T03:29:01;3.88;;;2.58;;
39740;SDS011;25426;53.478;10.190;2022-10-16T03:31:33;4.05;;;2.72;;
39740;SDS011;25426;53.478;10.190;2022-10-16T03:34:04;4.22;;;2.80;;
39740;SDS011;25426;53.478;10.190;2022-10-16T03:36:35;7.35;;;2.60;;
39740;SDS011;25426;53.478;10.190;2022-10-16T03:39:06;7.72;;;2.50;;
39740;SDS011;25426;53.478;10.190;2022-10-16T03:41:37;4.28;;;2.20;;
39740;SDS011;25426;53.478;10.190;2022-10-16T03:44:08;11.35;;;2.13;;
39740;SDS011;25426;53.478;10.190;2022-10-16T03:46:39;4.50;;;2.72;;
39740;SDS011;25426;53.478;10.190;2022-10-16T03:49:10;4.28;;;2.35;;
39740;SDS011;25426;53.478;10.190;2022-10-16T03:51:41;7.57;;;2.85;;
39740;SDS011;25426;53.478;10.190;2022-10-16T03:54:12;4.45;;;2.60;;
39740;SDS011;25426;53.478;10.190;2022-10-16T03:56:43;4.13;;;2.63;;
39740;SDS011;25426;53.478;10.190;2022-10-16T03:59:14;4.22;;;2.45;;
39740;SDS011;25426;53.478;10.190;2022-10-16T04:01:45;5.43;;;2.42;;
39740;SDS011;25426;53.478;10.190;2022-10-16T04:04:16;4.43;;;2.30;;
39740;SDS011;25426;53.478;10.190;2022-10-16T04:06:47;6.47;;;2.67;;
39740;SDS011;25426;53.478;10.190;2022-10-16T04:09:18;6.85;;;2.30;;
39740;SDS011;25426;53.478;10.190;2022-10-16T04:11:49;7.07;;;2.95;;
39740;SDS011;25426;53.478;10.190;2022-10-16T04:14:20;4.32;;;2.33;;
39740;SDS011;25426;53.478;10.190;2022-10-16T04:16:51;3.47;;;2.53;;
39740;SDS011;25426;53.478;10.190;2022-10-16T04:19:22;2.90;;;2.00;;
39740;SDS011;25426;53.478;10.190;2022-10-16T04:21:53;3.05;;;1.70;;
39740;SDS011;25426;53.478;10.190;2022-10-16T04:24:24;6.28;;;2.75;;
39740;SDS011;25426;53.478;10.190;2022-10-16T04:26:55;4.90;;;2.40;;
39740;SDS011;25426;53.478;10.190;2022-10-16T04:29:26;4.57;;;2.47;;
39740;SDS011;25426;53.478;10.190;2022-10-16T04:31:57;3.90;;;2.78;;
39740;SDS011;25426;53.478;10.190;2022-10-16T04:34:28;6.63;;;2.58;;
39740;SDS011;25426;53.478;10.190;2022-10-16T04:36:59;4.82;;;2.55;;
39740;SDS011;25426;53.478;10.190;2022-10-16T04:39:30;4.03;;;2.28;;
39740;SDS011;25426;53.478;10.190;2022-10-16T04:42:01;3.22;;;2.75;;
39740;SDS011;25426;53.478;10.190;2022-10-16T04:44:32;4.78;;;2.47;;
39740;SDS011;25426;53.478;10.190;2022-10-16T04:47:03;5.90;;;2.92;;
39740;SDS011;25426;53.478;10.190;2022-10-16T04:49:34;5.60;;;2.70;;
39740;SDS011;25426;53.478;10.190;2022-10-16T04:52:05;4.05;;;2.38;;
39740;SDS011;25426;53.478;10.190;2022-10-16T04:54:36;4.50;;;2.30;;
39740;SDS011;25426;53.478;10.190;2022-10-16T04:57:07;4.70;;;2.92;;
39740;SDS011;25426;53.478;10.190;2022-10-16T04:59:38;6.30;;;2.40;;
39740;SDS011;25426;53.478;10.190;2022-10-16T05:02:09;4.15;;;2.28;;
39740;SDS011;25426;53.478;10.190;2022-10-16T05:04:40;6.13;;;2.55;;
39740;SDS011;25426;53.478;10.190;2022-10-16T05:07:11;4.70;;;3.17;;
39740;SDS011;25426;53.478;10.190;2022-10-16T05:09:42;3.30;;;2.65;;
39740;SDS011;25426;53.478;10.190;2022-10-16T05:12:13;11.30;;;3.22;;
39740;SDS011;25426;53.478;10.190;2022-10-16T05:14:43;6.75;;;2.70;;
39740;SDS011;25426;53.478;10.190;2022-10-16T05:17:14;8.73;;;2.72;;
39740;SDS011;25426;53.478;10.190;2022-10-16T05:19:45;9.75;;;3.30;;
39740;SDS011;25426;53.478;10.190;2022-10-16T05:22:16;5.00;;;2.58;;
39740;SDS011;25426;53.478;10.190;2022-10-16T05:24:48;3.70;;;2.47;;
39740;SDS011;25426;53.478;10.190;2022-10-16T05:27:18;7.65;;;3.05;;
39740;SDS011;25426;53.478;10.190;2022-10-16T05:29:49;5.97;;;3.00;;
39740;SDS011;25426;53.478;10.190;2022-10-16T05:32:20;10.15;;;2.92;;
39740;SDS011;25426;53.478;10.190;2022-10-16T05:34:51;4.10;;;2.83;;
39740;SDS011;25426;53.478;10.190;2022-10-16T05:37:22;9.88;;;3.20;;
39740;SDS011;25426;53.478;10.190;2022-10-16T05:39:53;5.47;;;3.13;;
39740;SDS011;25426;53.478;10.190;2022-10-16T05:42:24;3.28;;;2.70;;
39740;SDS011;25426;53.478;10.190;2022-10-16T05:44:55;5.65;;;3.13;;
39740;SDS011;25426;53.478;10.190;2022-10-16T05:47:26;4.78;;;3.47;;
39740;SDS011;25426;53.478;10.190;2022-10-16T05:49:57;6.38;;;2.78;;
39740;SDS011;25426;53.478;10.190;2022-10-16T05:52:28;10.07;;;3.67;;
39740;SDS011;25426;53.478;10.190;2022-10-16T05:54:59;8.68;;;3.10;;
39740;SDS011;25426;53.478;10.190;2022-10-16T05:57:30;6.68;;;3.03;;
39740;SDS011;25426;53.478;10.190;2022-10-16T06:00:01;6.97;;;3.08;;
39740;SDS011;25426;53.478;10.190;2022-10-16T06:02:42;6.03;;;3.10;;
39740;SDS011;25426;53.478;10.190;2022-10-16T06:05:14;8.25;;;3.20;;
39740;SDS011;25426;53.478;10.190;2022-10-16T06:07:45;3.55;;;2.95;;
39740;SDS011;25426;53.478;10.190;2022-10-16T06:10:15;3.70;;;2.85;;
39740;SDS011;25426;53.478;10.190;2022-10-16T06:12:46;5.93;;;3.03;;
39740;SDS011;25426;53.478;10.190;2022-10-16T06:15:17;3.50;;;2.58;;
39740;SDS011;25426;53.478;10.190;2022-10-16T06:17:48;4.30;;;2.90;;
39740;SDS011;25426;53.478;10.190;2022-10-16T06:20:19;9.52;;;3.20;;
39740;SDS011;25426;53.478;10.190;2022-10-16T06:22:50;4.53;;;2.45;;
39740;SDS011;25426;53.478;10.190;2022-10-16T06:25:21;7.88;;;2.67;;
39740;SDS011;25426;53.478;10.190;2022-10-16T06:27:52;3.70;;;2.85;;
39740;SDS011;25426;53.478;10.190;2022-10-16T06:30:23;4.68;;;2.50;;
39740;SDS011;25426;53.478;10.190;2022-10-16T06:32:54;5.70;;;2.63;;
39740;SDS011;25426;53.478;10.190;2022-10-16T06:35:25;5.82;;;2.70;;
39740;SDS011;25426;53.478;10.190;2022-10-16T06:37:56;8.50;;;3.33;;
39740;SDS011;25426;53.478;10.190;2022-10-16T06:40:26;8.98;;;3.55;;
39740;SDS011;25426;53.478;10.190;2022-10-16T06:42:57;7.60;;;3.15;;
39740;SDS011;25426;53.478;10.190;2022-10-16T06:45:29;4.05;;;3.15;;
39740;SDS011;25426;53.478;10.190;2022-10-16T06:48:00;5.25;;;3.35;;
39740;SDS011;25426;53.478;10.190;2022-10-16T06:50:31;5.95;;;3.53;;
39740;SDS011;25426;53.478;10.190;2022-10-16T06:53:02;6.75;;;3.65;;
39740;SDS011;25426;53.478;10.190;2022-10-16T06:55:33;5.93;;;3.58;;
39740;SDS011;25426;53.478;10.190;2022-10-16T06:58:04;8.90;;;4.07;;
39740;SDS011;25426;53.478;10.190;2022-10-16T07:00:34;6.82;;;4.00;;
39740;SDS011;25426;53.478;10.190;2022-10-16T07:03:05;5.63;;;3.90;;
39740;SDS011;25426;53.478;10.190;2022-10-16T07:05:37;7.35;;;4.45;;
39740;SDS011;25426;53.478;10.190;2022-10-16T07:08:09;6.70;;;5.13;;
39740;SDS011;25426;53.478;10.190;2022-10-16T07:10:40;10.85;;;5.40;;
39740;SDS011;25426;53.478;10.190;2022-10-16T07:13:11;9.45;;;4.93;;
39740;SDS011;25426;53.478;10.190;2022-10-16T07:15:45;12.35;;;5.63;;
39740;SDS011;25426;53.478;10.190;2022-10-16T07:18:16;7.07;;;4.25;;
39740;SDS011;25426;53.478;10.190;2022-10-16T07:20:47;7.82;;;5.28;;
39740;SDS011;25426;53.478;10.190;2022-10-16T07:23:18;7.13;;;4.80;;
39740;SDS011;25426;53.478;10.190;2022-10-16T07:25:53;6.72;;;5.03;;
39740;SDS011;25426;53.478;10.190;2022-10-16T07:28:24;4.47;;;3.70;;
39740;SDS011;25426;53.478;10.190;2022-10-16T07:30:59;7.93;;;4.55;;
39740;SDS011;25426;53.478;10.190;2022-10-16T07:33:36;9.25;;;4.75;;
39740;SDS011;25426;53.478;10.190;2022-10-16T07:36:08;5.95;;;4.15;;
39740;SDS011;25426;53.478;10.190;2022-10-16T07:38:45;5.82;;;3.60;;
39740;SDS011;25426;53.478;10.190;2022-10-16T07:41:19;6.05;;;3.42;;
39740;SDS011;25426;53.478;10.190;2022-10-16T07:43:51;7.13;;;3.78;;
39740;SDS011;25426;53.478;10.190;2022-10-16T07:46:24;3.60;;;3.10;;
39740;SDS011;25426;53.478;10.190;2022-10-16T07:48:56;4.75;;;2.67;;
39740;SDS011;25426;53.478;10.190;2022-10-16T07:51:27;5.60;;;3.03;;
39740;SDS011;25426;53.478;10.190;2022-10-16T07:53:58;4.80;;;2.72;;
39740;SDS011;25426;53.478;10.190;2022-10-16T07:56:30;7.05;;;3.13;;
39740;SDS011;25426;53.478;10.190;2022-10-16T07:59:02;5.75;;;2.97;;
39740;SDS011;25426;53.478;10.190;2022-10-16T08:01:33;5.25;;;2.85;;
39740;SDS011;25426;53.478;10.190;2022-10-16T08:04:05;4.65;;;3.20;;
39740;SDS011;25426;53.478;10.190;2022-10-16T08:06:37;4.97;;;2.88;;
39740;SDS011;25426;53.478;10.190;2022-10-16T08:09:09;4.45;;;2.60;;
39740;SDS011;25426;53.478;10.190;2022-10-16T08:11:40;4.68;;;2.50;;
39740;SDS011;25426;53.478;10.190;2022-10-16T08:14:11;3.90;;;2.60;;
39740;SDS011;25426;53.478;10.190;2022-10-16T08:16:42;3.65;;;2.55;;
39740;SDS011;25426;53.478;10.190;2022-10-16T08:19:13;7.05;;;2.65;;
39740;SDS011;25426;53.478;10.190;2022-10-16T08:21:48;3.67;;;2.83;;
39740;SDS011;25426;53.478;10.190;2022-10-16T08:24:19;5.80;;;2.42;;
39740;SDS011;25426;53.478;10.190;2022-10-16T08:26:52;3.92;;;2.38;;
39740;SDS011;25426;53.478;10.190;2022-10-16T08:29:24;4.75;;;2.25;;
39740;SDS011;25426;53.478;10.190;2022-10-16T08:31:55;4.18;;;2.53;;
39740;SDS011;25426;53.478;10.190;2022-10-16T08:34:26;2.75;;;2.38;;
39740;SDS011;25426;53.478;10.190;2022-10-16T08:36:57;6.07;;;2.63;;
39740;SDS011;25426;53.478;10.190;2022-10-16T08:39:28;3.17;;;2.40;;
39740;SDS011;25426;53.478;10.190;2022-10-16T08:42:08;5.60;;;2.50;;
39740;SDS011;25426;53.478;10.190;2022-10-16T08:51:18;3.13;;;2.17;;
39740;SDS011;25426;53.478;10.190;2022-10-16T08:54:15;5.03;;;1.90;;
39740;SDS011;25426;53.478;10.190;2022-10-16T08:57:09;4.63;;;1.75;;
39740;SDS011;25426;53.478;10.190;2022-10-16T08:59:47;3.40;;;1.75;;
39740;SDS011;25426;53.478;10.190;2022-10-16T09:02:24;4.57;;;2.17;;
39740;SDS011;25426;53.478;10.190;2022-10-16T09:05:22;3.78;;;1.80;;
39740;SDS011;25426;53.478;10.190;2022-10-16T09:08:07;3.13;;;1.48;;
39740;SDS011;25426;53.478;10.190;2022-10-16T09:17:24;2.47;;;1.80;;
39740;SDS011;25426;53.478;10.190;2022-10-16T09:23:25;3.05;;;2.20;;
39740;SDS011;25426;53.478;10.190;2022-10-16T09:25:59;2.50;;;1.40;;
39740;SDS011;25426;53.478;10.190;2022-10-16T09:28:31;4.35;;;1.70;;
39740;SDS011;25426;53.478;10.190;2022-10-16T09:31:02;3.95;;;1.75;;
39740;SDS011;25426;53.478;10.190;2022-10-16T09:33:33;3.20;;;1.35;;
39740;SDS011;25426;53.478;10.190;2022-10-16T09:36:07;3.72;;;1.40;;
39740;SDS011;25426;53.478;10.190;2022-10-16T09:38:38;6.78;;;1.88;;
39740;SDS011;25426;53.478;10.190;2022-10-16T09:41:19;3.30;;;1.30;;
39740;SDS011;25426;53.478;10.190;2022-10-16T09:43:55;4.63;;;1.40;;
39740;SDS011;25426;53.478;10.190;2022-10-16T09:49:25;2.00;;;1.50;;
39740;SDS011;25426;53.478;10.190;2022-10-16T09:52:04;2.50;;;1.40;;
39740;SDS011;25426;53.478;10.190;2022-10-16T09:54:50;3.67;;;1.48;;
39740;SDS011;25426;53.478;10.190;2022-10-16T09:57:28;4.18;;;1.40;;
39740;SDS011;25426;53.478;10.190;2022-10-16T10:00:04;3.92;;;1.50;;
39740;SDS011;25426;53.478;10.190;2022-10-16T10:02:39;2.70;;;1.50;;
39740;SDS011;25426;53.478;10.190;2022-10-16T10:05:17;2.65;;;1.20;;
39740;SDS011;25426;53.478;10.190;2022-10-16T10:07:59;4.22;;;1.38;;
39740;SDS011;25426;53.478;10.190;2022-10-16T10:10:41;5.35;;;1.80;;
39740;SDS011;25426;53.478;10.190;2022-10-16T10:13:19;2.63;;;1.48;;
39740;SDS011;25426;53.478;10.190;2022-10-16T10:15:52;2.90;;;1.50;;
39740;SDS011;25426;53.478;10.190;2022-10-16T10:18:24;4.32;;;1.42;;
39740;SDS011;25426;53.478;10.190;2022-10-16T10:20:57;3.78;;;1.65;;
39740;SDS011;25426;53.478;10.190;2022-10-16T10:23:32;3.33;;;1.33;;
39740;SDS011;25426;53.478;10.190;2022-10-16T10:26:11;3.72;;;1.58;;
39740;SDS011;25426;53.478;10.190;2022-10-16T10:34:47;7.20;;;1.48;;
39740;SDS011;25426;53.478;10.190;2022-10-16T10:37:49;2.17;;;1.15;;
39740;SDS011;25426;53.478;10.190;2022-10-16T10:41:00;2.30;;;1.08;;
39740;SDS011;25426;53.478;10.190;2022-10-16T10:47:35;4.55;;;1.50;;
39740;SDS011;25426;53.478;10.190;2022-10-16T10:50:49;5.18;;;1.10;;
39740;SDS011;25426;53.478;10.190;2022-10-16T10:53:48;3.15;;;1.63;;
39740;SDS011;25426;53.478;10.190;2022-10-16T11:05:50;8.57;;;1.65;;
39740;SDS011;25426;53.478;10.190;2022-10-16T11:08:35;2.15;;;1.15;;
39740;SDS011;25426;53.478;10.190;2022-10-16T11:11:24;5.65;;;1.25;;
39740;SDS011;25426;53.478;10.190;2022-10-16T11:14:14;3.33;;;1.38;;
39740;SDS011;25426;53.478;10.190;2022-10-16T11:17:05;5.03;;;1.45;;
39740;SDS011;25426;53.478;10.190;2022-10-16T11:20:11;4.53;;;1.10;;
39740;SDS011;25426;53.478;10.190;2022-10-16T11:23:30;4.80;;;1.25;;
39740;SDS011;25426;53.478;10.190;2022-10-16T11:26:33;2.67;;;1.15;;
39740;SDS011;25426;53.478;10.190;2022-10-16T11:29:10;3.58;;;1.20;;
39740;SDS011;25426;53.478;10.190;2022-10-16T11:31:52;5.05;;;1.17;;
39740;SDS011;25426;53.478;10.190;2022-10-16T11:34:35;1.33;;;0.90;;
39740;SDS011;25426;53.478;10.190;2022-10-16T11:37:16;5.32;;;1.70;;
39740;SDS011;25426;53.478;10.190;2022-10-16T11:40:23;3.65;;;1.10;;
39740;SDS011;25426;53.478;10.190;2022-10-16T11:43:10;5.47;;;1.35;;
39740;SDS011;25426;53.478;10.190;2022-10-16T11:46:15;4.53;;;1.10;;
39740;SDS011;25426;53.478;10.190;2022-10-16T11:51:48;2.53;;;1.00;;
39740;SDS011;25426;53.478;10.190;2022-10-16T11:54:36;3.47;;;1.20;;
39740;SDS011;25426;53.478;10.190;2022-10-16T11:57:23;1.63;;;0.93;;
39740;SDS011;25426;53.478;10.190;2022-10-16T12:00:09;3.05;;;0.80;;
39740;SDS011;25426;53.478;10.190;2022-10-16T12:07:17;3.85;;;1.13;;
39740;SDS011;25426;53.478;10.190;2022-10-16T12:09:54;3.65;;;1.17;;
39740;SDS011;25426;53.478;10.190;2022-10-16T12:12:37;4.07;;;1.50;;
39740;SDS011;25426;53.478;10.190;2022-10-16T12:18:01;2.47;;;1.00;;
39740;SDS011;25426;53.478;10.190;2022-10-16T12:20:32;4.82;;;1.25;;
39740;SDS011;25426;53.478;10.190;2022-10-16T12:23:06;3.05;;;1.17;;
39740;SDS011;25426;53.478;10.190;2022-10-16T12:25:38;3.90;;;0.90;;
39740;SDS011;25426;53.478;10.190;2022-10-16T12:28:20;3.72;;;1.13;;
39740;SDS011;25426;53.478;10.190;2022-10-16T12:30:57;8.40;;;1.15;;
39740;SDS011;25426;53.478;10.190;2022-10-16T12:33:42;2.33;;;1.02;;
39740;SDS011;25426;53.478;10.190;2022-10-16T12:36:34;5.50;;;1.20;;
39740;SDS011;25426;53.478;10.190;2022-10-16T12:39:05;1.65;;;1.20;;
39740;SDS011;25426;53.478;10.190;2022-10-16T12:41:36;4.75;;;1.20;;
39740;SDS011;25426;53.478;10.190;2022-10-16T12:44:23;3.30;;;1.08;;
39740;SDS011;25426;53.478;10.190;2022-10-16T12:46:57;3.03;;;0.98;;
39740;SDS011;25426;53.478;10.190;2022-10-16T12:52:28;4.03;;;1.65;;
39740;SDS011;25426;53.478;10.190;2022-10-16T12:55:16;4.13;;;1.15;;
39740;SDS011;25426;53.478;10.190;2022-10-16T12:58:00;3.05;;;1.50;;
39740;SDS011;25426;53.478;10.190;2022-10-16T13:00:55;4.03;;;1.67;;
39740;SDS011;25426;53.478;10.190;2022-10-16T13:03:31;3.28;;;1.08;;
39740;SDS011;25426;53.478;10.190;2022-10-16T13:06:30;3.60;;;1.13;;
39740;SDS011;25426;53.478;10.190;2022-10-16T13:15:07;5.50;;;1.20;;
39740;SDS011;25426;53.478;10.190;2022-10-16T13:18:05;3.83;;;1.50;;
39740;SDS011;25426;53.478;10.190;2022-10-16T13:21:16;5.53;;;1.70;;
39740;SDS011;25426;53.478;10.190;2022-10-16T13:27:41;4.07;;;1.20;;
39740;SDS011;25426;53.478;10.190;2022-10-16T13:30:31;6.15;;;1.35;;
39740;SDS011;25426;53.478;10.190;2022-10-16T13:33:15;9.00;;;1.00;;
39740;SDS011;25426;53.478;10.190;2022-10-16T13:35:52;5.40;;;1.25;;
39740;SDS011;25426;53.478;10.190;2022-10-16T13:38:26;3.65;;;1.52;;
39740;SDS011;25426;53.478;10.190;2022-10-16T13:41:13;4.90;;;1.38;;
39740;SDS011;25426;53.478;10.190;2022-10-16T13:43:49;4.90;;;1.58;;
39740;SDS011;25426;53.478;10.190;2022-10-16T13:46:22;3.63;;;1.15;;
39740;SDS011;25426;53.478;10.190;2022-10-16T13:49:02;4.22;;;1.15;;
39740;SDS011;25426;53.478;10.190;2022-10-16T13:51:41;4.05;;;1.27;;
39740;SDS011;25426;53.478;10.190;2022-10-16T13:54:27;3.60;;;1.10;;
39740;SDS011;25426;53.478;10.190;2022-10-16T13:57:04;5.50;;;1.27;;
39740;SDS011;25426;53.478;10.190;2022-10-16T13:59:37;7.85;;;1.10;;
39740;SDS011;25426;53.478;10.190;2022-10-16T14:02:17;6.43;;;1.10;;
39740;SDS011;25426;53.478;10.190;2022-10-16T14:05:08;3.50;;;1.08;;
39740;SDS011;25426;53.478;10.190;2022-10-16T14:07:40;4.25;;;0.98;;
39740;SDS011;25426;53.478;10.190;2022-10-16T14:10:20;3.83;;;1.00;;
39740;SDS011;25426;53.478;10.190;2022-10-16T14:15:35;6.75;;;1.48;;
39740;SDS011;25426;53.478;10.190;2022-10-16T14:18:07;3.65;;;1.45;;
39740;SDS011;25426;53.478;10.190;2022-10-16T14:20:52;6.95;;;1.60;;
39740;SDS011;25426;53.478;10.190;2022-10-16T14:23:28;6.38;;;1.10;;
39740;SDS011;25426;53.478;10.190;2022-10-16T14:28:40;6.50;;;1.52;;
39740;SDS011;25426;53.478;10.190;2022-10-16T14:33:49;8.23;;;1.55;;
39740;SDS011;25426;53.478;10.190;2022-10-16T14:36:20;4.20;;;1.13;;
39740;SDS011;25426;53.478;10.190;2022-10-16T14:38:55;5.50;;;1.67;;
39740;SDS011;25426;53.478;10.190;2022-10-16T14:41:40;4.13;;;1.48;;
39740;SDS011;25426;53.478;10.190;2022-10-16T14:44:17;5.18;;;1.23;;
39740;SDS011;25426;53.478;10.190;2022-10-16T14:46:49;5.03;;;1.30;;
39740;SDS011;25426;53.478;10.190;2022-10-16T14:49:20;4.53;;;1.10;;
39740;SDS011;25426;53.478;10.190;2022-10-16T14:51:52;2.60;;;1.15;;
39740;SDS011;25426;53.478;10.190;2022-10-16T14:54:23;2.97;;;1.42;;
39740;SDS011;25426;53.478;10.190;2022-10-16T14:56:54;6.05;;;1.83;;
39740;SDS011;25426;53.478;10.190;2022-10-16T14:59:28;6.90;;;1.55;;
39740;SDS011;25426;53.478;10.190;2022-10-16T15:02:01;4.20;;;1.20;;
39740;SDS011;25426;53.478;10.190;2022-10-16T15:05:12;5.43;;;1.60;;
39740;SDS011;25426;53.478;10.190;2022-10-16T15:07:57;6.45;;;1.83;;
39740;SDS011;25426;53.478;10.190;2022-10-16T15:10:28;6.05;;;1.52;;
39740;SDS011;25426;53.478;10.190;2022-10-16T15:13:00;4.75;;;1.38;;
39740;SDS011;25426;53.478;10.190;2022-10-16T15:18:07;4.30;;;1.30;;
39740;SDS011;25426;53.478;10.190;2022-10-16T15:20:38;5.95;;;1.40;;
39740;SDS011;25426;53.478;10.190;2022-10-16T15:23:14;5.40;;;1.30;;
39740;SDS011;25426;53.478;10.190;2022-10-16T15:25:52;9.32;;;1.73;;
39740;SDS011;25426;53.478;10.190;2022-10-16T15:28:25;5.72;;;1.40;;
39740;SDS011;25426;53.478;10.190;2022-10-16T15:30:57;6.40;;;1.75;;
39740;SDS011;25426;53.478;10.190;2022-10-16T15:33:28;4.28;;;1.60;;
39740;SDS011;25426;53.478;10.190;2022-10-16T15:36:02;8.07;;;1.67;;
39740;SDS011;25426;53.478;10.190;2022-10-16T15:38:34;6.43;;;1.25;;
39740;SDS011;25426;53.478;10.190;2022-10-16T15:41:05;9.60;;;1.95;;
39740;SDS011;25426;53.478;10.190;2022-10-16T15:43:36;5.22;;;1.67;;
39740;SDS011;25426;53.478;10.190;2022-10-16T15:46:09;3.78;;;1.55;;
39740;SDS011;25426;53.478;10.190;2022-10-16T15:48:44;5.70;;;1.80;;
39740;SDS011;25426;53.478;10.190;2022-10-16T15:51:15;5.35;;;1.75;;
39740;SDS011;25426;53.478;10.190;2022-10-16T15:53:47;5.93;;;1.88;;
39740;SDS011;25426;53.478;10.190;2022-10-16T15:56:18;4.13;;;1.83;;
39740;SDS011;25426;53.478;10.190;2022-10-16T15:58:49;3.85;;;1.48;;
39740;SDS011;25426;53.478;10.190;2022-10-16T16:01:20;5.40;;;1.98;;
39740;SDS011;25426;53.478;10.190;2022-10-16T16:03:54;5.00;;;2.22;;
39740;SDS011;25426;53.478;10.190;2022-10-16T16:06:26;6.38;;;1.90;;
39740;SDS011;25426;53.478;10.190;2022-10-16T16:08:58;6.15;;;2.60;;
39740;SDS011;25426;53.478;10.190;2022-10-16T16:11:29;5.65;;;3.00;;
39740;SDS011;25426;53.478;10.190;2022-10-16T16:14:02;4.28;;;2.33;;
39740;SDS011;25426;53.478;10.190;2022-10-16T16:16:33;10.43;;;4.15;;
39740;SDS011;25426;53.478;10.190;2022-10-16T16:19:07;9.38;;;5.35;;
39740;SDS011;25426;53.478;10.190;2022-10-16T16:21:39;11.07;;;8.00;;
39740;SDS011;25426;53.478;10.190;2022-10-16T16:24:10;10.20;;;5.80;;
39740;SDS011;25426;53.478;10.190;2022-10-16T16:26:41;8.18;;;6.10;;
39740;SDS011;25426;53.478;10.190;2022-10-16T16:29:13;10.80;;;6.10;;
39740;SDS011;25426;53.478;10.190;2022-10-16T16:31:45;10.18;;;5.03;;
39740;SDS011;25426;53.478;10.190;2022-10-16T16:34:17;6.05;;;4.32;;
39740;SDS011;25426;53.478;10.190;2022-10-16T16:36:49;9.65;;;4.90;;
39740;SDS011;25426;53.478;10.190;2022-10-16T16:39:21;10.48;;;4.53;;
39740;SDS011;25426;53.478;10.190;2022-10-16T16:41:52;9.68;;;3.30;;
39740;SDS011;25426;53.478;10.190;2022-10-16T16:44:28;8.43;;;3.15;;
39740;SDS011;25426;53.478;10.190;2022-10-16T16:46:59;5.55;;;4.05;;
39740;SDS011;25426;53.478;10.190;2022-10-16T16:49:30;20.30;;;16.65;;